sensor_id;sensor_type;location;lat;lon;timestamp;P1;durP1;ratioP1;P2;durP2;ratioP2
22282;SDS011;11310;51.528;21.204;2023-12-29T00:01:59;18.27;;;6.82;;
22282;SDS011;11310;51.528;21.204;2023-12-29T00:04:28;18.88;;;7.38;;
22282;SDS011;11310;51.528;21.204;2023-12-29T00:07:03;17.10;;;7.30;;
22282;SDS011;11310;51.528;21.204;2023-12-29T00:09:31;15.50;;;7.13;;
22282;SDS011;11310;51.528;21.204;2023-12-29T00:12:08;16.55;;;6.53;;
22282;SDS011;11310;51.528;21.204;2023-12-29T00:14:36;17.17;;;6.47;;
22282;SDS011;11310;51.528;21.204;2023-12-29T00:17:07;13.07;;;6.37;;
22282;SDS011;11310;51.528;21.204;2023-12-29T00:19:40;17.10;;;6.10;;
22282;SDS011;11310;51.528;21.204;2023-12-29T00:22:10;14.93;;;6.13;;
22282;SDS011;11310;51.528;21.204;2023-12-29T00:24:39;15.65;;;6.72;;
22282;SDS011;11310;51.528;21.204;2023-12-29T00:27:09;16.73;;;6.80;;
22282;SDS011;11310;51.528;21.204;2023-12-29T00:29:38;13.98;;;6.50;;
22282;SDS011;11310;51.528;21.204;2023-12-29T00:32:06;16.40;;;6.13;;
22282;SDS011;11310;51.528;21.204;2023-12-29T00:34:36;15.70;;;6.70;;
22282;SDS011;11310;51.528;21.204;2023-12-29T00:37:05;15.23;;;6.53;;
22282;SDS011;11310;51.528;21.204;2023-12-29T00:39:34;14.52;;;6.45;;
22282;SDS011;11310;51.528;21.204;2023-12-29T00:42:09;17.23;;;7.72;;
22282;SDS011;11310;51.528;21.204;2023-12-29T00:44:48;19.42;;;7.63;;
22282;SDS011;11310;51.528;21.204;2023-12-29T00:47:18;15.38;;;7.30;;
22282;SDS011;11310;51.528;21.204;2023-12-29T00:49:50;13.38;;;5.68;;
22282;SDS011;11310;51.528;21.204;2023-12-29T00:52:18;20.92;;;8.63;;
22282;SDS011;11310;51.528;21.204;2023-12-29T00:54:48;21.50;;;8.23;;
22282;SDS011;11310;51.528;21.204;2023-12-29T00:57:16;18.67;;;8.35;;
22282;SDS011;11310;51.528;21.204;2023-12-29T00:59:46;18.70;;;8.10;;
22282;SDS011;11310;51.528;21.204;2023-12-29T01:02:15;15.48;;;7.63;;
22282;SDS011;11310;51.528;21.204;2023-12-29T01:04:43;20.17;;;7.97;;
22282;SDS011;11310;51.528;21.204;2023-12-29T01:07:12;15.27;;;7.07;;
22282;SDS011;11310;51.528;21.204;2023-12-29T01:09:40;15.55;;;7.28;;
22282;SDS011;11310;51.528;21.204;2023-12-29T01:12:17;16.05;;;7.00;;
22282;SDS011;11310;51.528;21.204;2023-12-29T01:14:46;16.70;;;7.05;;
22282;SDS011;11310;51.528;21.204;2023-12-29T01:17:18;15.68;;;7.05;;
22282;SDS011;11310;51.528;21.204;2023-12-29T01:19:51;15.57;;;7.15;;
22282;SDS011;11310;51.528;21.204;2023-12-29T01:22:20;18.02;;;7.15;;
22282;SDS011;11310;51.528;21.204;2023-12-29T01:24:50;14.27;;;6.90;;
22282;SDS011;11310;51.528;21.204;2023-12-29T01:27:21;19.65;;;7.55;;
22282;SDS011;11310;51.528;21.204;2023-12-29T01:29:49;18.42;;;7.40;;
22282;SDS011;11310;51.528;21.204;2023-12-29T01:32:22;10.68;;;5.45;;
22282;SDS011;11310;51.528;21.204;2023-12-29T01:34:51;17.00;;;6.65;;
22282;SDS011;11310;51.528;21.204;2023-12-29T01:37:20;14.60;;;7.65;;
22282;SDS011;11310;51.528;21.204;2023-12-29T01:39:48;17.25;;;6.75;;
22282;SDS011;11310;51.528;21.204;2023-12-29T01:42:17;17.35;;;7.25;;
22282;SDS011;11310;51.528;21.204;2023-12-29T01:44:48;18.13;;;7.35;;
22282;SDS011;11310;51.528;21.204;2023-12-29T01:47:28;19.05;;;6.78;;
22282;SDS011;11310;51.528;21.204;2023-12-29T01:49:58;13.07;;;6.57;;
22282;SDS011;11310;51.528;21.204;2023-12-29T01:52:27;15.52;;;7.20;;
22282;SDS011;11310;51.528;21.204;2023-12-29T01:54:57;17.52;;;6.82;;
22282;SDS011;11310;51.528;21.204;2023-12-29T01:57:27;17.98;;;7.22;;
22282;SDS011;11310;51.528;21.204;2023-12-29T02:00:01;22.23;;;7.63;;
22282;SDS011;11310;51.528;21.204;2023-12-29T02:02:38;18.43;;;7.70;;
22282;SDS011;11310;51.528;21.204;2023-12-29T02:05:06;16.00;;;6.78;;
22282;SDS011;11310;51.528;21.204;2023-12-29T02:07:37;16.50;;;6.78;;
22282;SDS011;11310;51.528;21.204;2023-12-29T02:10:06;17.10;;;7.35;;
22282;SDS011;11310;51.528;21.204;2023-12-29T02:12:35;15.57;;;7.40;;
22282;SDS011;11310;51.528;21.204;2023-12-29T02:15:06;16.80;;;7.75;;
22282;SDS011;11310;51.528;21.204;2023-12-29T02:17:38;14.35;;;7.53;;
22282;SDS011;11310;51.528;21.204;2023-12-29T02:20:09;16.67;;;8.10;;
22282;SDS011;11310;51.528;21.204;2023-12-29T02:22:38;18.58;;;8.10;;
22282;SDS011;11310;51.528;21.204;2023-12-29T02:25:07;18.83;;;8.13;;
22282;SDS011;11310;51.528;21.204;2023-12-29T02:27:46;18.00;;;7.85;;
22282;SDS011;11310;51.528;21.204;2023-12-29T02:30:28;16.33;;;7.57;;
22282;SDS011;11310;51.528;21.204;2023-12-29T02:33:04;14.23;;;7.35;;
22282;SDS011;11310;51.528;21.204;2023-12-29T02:35:41;18.15;;;7.03;;
22282;SDS011;11310;51.528;21.204;2023-12-29T02:38:13;13.95;;;7.07;;
22282;SDS011;11310;51.528;21.204;2023-12-29T02:40:48;16.20;;;7.00;;
22282;SDS011;11310;51.528;21.204;2023-12-29T02:43:19;12.85;;;6.30;;
22282;SDS011;11310;51.528;21.204;2023-12-29T02:45:50;15.30;;;6.43;;
22282;SDS011;11310;51.528;21.204;2023-12-29T02:48:19;13.60;;;6.65;;
22282;SDS011;11310;51.528;21.204;2023-12-29T02:50:47;13.52;;;6.18;;
22282;SDS011;11310;51.528;21.204;2023-12-29T02:53:19;13.48;;;6.53;;
22282;SDS011;11310;51.528;21.204;2023-12-29T02:58:17;15.18;;;5.63;;
22282;SDS011;11310;51.528;21.204;2023-12-29T03:00:46;18.90;;;5.78;;
22282;SDS011;11310;51.528;21.204;2023-12-29T03:03:14;15.05;;;6.22;;
22282;SDS011;11310;51.528;21.204;2023-12-29T03:05:42;15.77;;;6.53;;
22282;SDS011;11310;51.528;21.204;2023-12-29T03:08:11;14.93;;;5.57;;
22282;SDS011;11310;51.528;21.204;2023-12-29T03:10:39;11.63;;;6.10;;
22282;SDS011;11310;51.528;21.204;2023-12-29T03:13:09;13.13;;;6.25;;
22282;SDS011;11310;51.528;21.204;2023-12-29T03:15:37;11.48;;;5.22;;
22282;SDS011;11310;51.528;21.204;2023-12-29T03:18:06;14.55;;;6.28;;
22282;SDS011;11310;51.528;21.204;2023-12-29T03:20:35;15.10;;;6.63;;
22282;SDS011;11310;51.528;21.204;2023-12-29T03:23:03;14.93;;;7.03;;
22282;SDS011;11310;51.528;21.204;2023-12-29T03:25:32;15.98;;;6.22;;
22282;SDS011;11310;51.528;21.204;2023-12-29T03:28:04;17.10;;;6.57;;
22282;SDS011;11310;51.528;21.204;2023-12-29T03:30:34;13.95;;;6.10;;
22282;SDS011;11310;51.528;21.204;2023-12-29T03:33:04;15.57;;;6.53;;
22282;SDS011;11310;51.528;21.204;2023-12-29T03:35:32;14.77;;;6.30;;
22282;SDS011;11310;51.528;21.204;2023-12-29T03:38:04;16.55;;;6.50;;
22282;SDS011;11310;51.528;21.204;2023-12-29T03:40:34;17.17;;;6.60;;
22282;SDS011;11310;51.528;21.204;2023-12-29T03:43:03;13.70;;;6.35;;
22282;SDS011;11310;51.528;21.204;2023-12-29T03:45:35;14.95;;;6.20;;
22282;SDS011;11310;51.528;21.204;2023-12-29T03:48:04;17.15;;;7.18;;
22282;SDS011;11310;51.528;21.204;2023-12-29T03:50:38;13.73;;;6.20;;
22282;SDS011;11310;51.528;21.204;2023-12-29T03:53:12;17.58;;;6.70;;
22282;SDS011;11310;51.528;21.204;2023-12-29T03:55:46;12.30;;;5.80;;
22282;SDS011;11310;51.528;21.204;2023-12-29T03:58:15;15.32;;;6.60;;
22282;SDS011;11310;51.528;21.204;2023-12-29T04:00:57;15.95;;;6.85;;
22282;SDS011;11310;51.528;21.204;2023-12-29T04:03:27;14.70;;;6.20;;
22282;SDS011;11310;51.528;21.204;2023-12-29T04:05:57;14.00;;;6.25;;
22282;SDS011;11310;51.528;21.204;2023-12-29T04:08:25;12.63;;;6.00;;
22282;SDS011;11310;51.528;21.204;2023-12-29T04:10:55;17.27;;;6.40;;
22282;SDS011;11310;51.528;21.204;2023-12-29T04:13:24;14.82;;;6.32;;
22282;SDS011;11310;51.528;21.204;2023-12-29T04:15:54;11.55;;;5.55;;
22282;SDS011;11310;51.528;21.204;2023-12-29T04:18:26;13.70;;;5.60;;
22282;SDS011;11310;51.528;21.204;2023-12-29T04:20:56;15.43;;;6.57;;
22282;SDS011;11310;51.528;21.204;2023-12-29T04:23:24;14.35;;;6.10;;
22282;SDS011;11310;51.528;21.204;2023-12-29T04:25:55;11.65;;;5.78;;
22282;SDS011;11310;51.528;21.204;2023-12-29T04:28:24;13.93;;;6.55;;
22282;SDS011;11310;51.528;21.204;2023-12-29T04:30:54;17.90;;;7.15;;
22282;SDS011;11310;51.528;21.204;2023-12-29T04:33:23;15.13;;;7.07;;
22282;SDS011;11310;51.528;21.204;2023-12-29T04:35:52;14.75;;;6.55;;
22282;SDS011;11310;51.528;21.204;2023-12-29T04:38:20;13.85;;;6.43;;
22282;SDS011;11310;51.528;21.204;2023-12-29T04:40:48;14.05;;;7.53;;
22282;SDS011;11310;51.528;21.204;2023-12-29T04:43:17;13.27;;;6.22;;
22282;SDS011;11310;51.528;21.204;2023-12-29T04:45:45;13.77;;;6.90;;
22282;SDS011;11310;51.528;21.204;2023-12-29T04:48:16;14.90;;;7.28;;
22282;SDS011;11310;51.528;21.204;2023-12-29T04:50:46;14.48;;;6.80;;
22282;SDS011;11310;51.528;21.204;2023-12-29T04:53:16;15.80;;;6.75;;
22282;SDS011;11310;51.528;21.204;2023-12-29T04:55:49;18.90;;;7.55;;
22282;SDS011;11310;51.528;21.204;2023-12-29T04:58:17;16.05;;;6.90;;
22282;SDS011;11310;51.528;21.204;2023-12-29T05:00:46;14.88;;;6.47;;
22282;SDS011;11310;51.528;21.204;2023-12-29T05:03:14;17.75;;;7.35;;
22282;SDS011;11310;51.528;21.204;2023-12-29T05:05:43;15.40;;;6.88;;
22282;SDS011;11310;51.528;21.204;2023-12-29T05:08:11;16.35;;;7.03;;
22282;SDS011;11310;51.528;21.204;2023-12-29T05:10:41;13.55;;;6.18;;
22282;SDS011;11310;51.528;21.204;2023-12-29T05:13:12;14.82;;;6.90;;
22282;SDS011;11310;51.528;21.204;2023-12-29T05:15:41;17.75;;;6.60;;
22282;SDS011;11310;51.528;21.204;2023-12-29T05:18:12;15.82;;;7.00;;
22282;SDS011;11310;51.528;21.204;2023-12-29T05:20:41;14.77;;;6.78;;
22282;SDS011;11310;51.528;21.204;2023-12-29T05:23:18;18.02;;;7.25;;
22282;SDS011;11310;51.528;21.204;2023-12-29T05:25:49;16.70;;;7.47;;
22282;SDS011;11310;51.528;21.204;2023-12-29T05:28:19;15.77;;;7.43;;
22282;SDS011;11310;51.528;21.204;2023-12-29T05:30:51;15.90;;;7.18;;
22282;SDS011;11310;51.528;21.204;2023-12-29T05:33:19;15.13;;;6.78;;
22282;SDS011;11310;51.528;21.204;2023-12-29T05:35:48;15.07;;;6.85;;
22282;SDS011;11310;51.528;21.204;2023-12-29T05:38:16;15.73;;;6.57;;
22282;SDS011;11310;51.528;21.204;2023-12-29T05:40:51;13.05;;;6.38;;
22282;SDS011;11310;51.528;21.204;2023-12-29T05:43:20;16.67;;;7.43;;
22282;SDS011;11310;51.528;21.204;2023-12-29T05:45:56;14.60;;;6.65;;
22282;SDS011;11310;51.528;21.204;2023-12-29T05:48:25;13.90;;;6.60;;
22282;SDS011;11310;51.528;21.204;2023-12-29T05:50:53;14.90;;;6.88;;
22282;SDS011;11310;51.528;21.204;2023-12-29T05:53:25;13.68;;;6.40;;
22282;SDS011;11310;51.528;21.204;2023-12-29T05:58:23;11.82;;;6.20;;
22282;SDS011;11310;51.528;21.204;2023-12-29T06:00:55;12.07;;;6.10;;
22282;SDS011;11310;51.528;21.204;2023-12-29T06:03:23;14.02;;;6.35;;
22282;SDS011;11310;51.528;21.204;2023-12-29T06:05:52;15.98;;;6.68;;
22282;SDS011;11310;51.528;21.204;2023-12-29T06:10:52;15.52;;;7.22;;
22282;SDS011;11310;51.528;21.204;2023-12-29T06:13:22;13.20;;;6.18;;
22282;SDS011;11310;51.528;21.204;2023-12-29T06:15:50;15.93;;;6.47;;
22282;SDS011;11310;51.528;21.204;2023-12-29T06:18:24;18.00;;;6.95;;
22282;SDS011;11310;51.528;21.204;2023-12-29T06:21:01;14.73;;;6.05;;
22282;SDS011;11310;51.528;21.204;2023-12-29T06:23:38;15.25;;;7.28;;
22282;SDS011;11310;51.528;21.204;2023-12-29T06:26:13;12.90;;;6.07;;
22282;SDS011;11310;51.528;21.204;2023-12-29T06:28:51;16.30;;;6.88;;
22282;SDS011;11310;51.528;21.204;2023-12-29T06:31:21;17.02;;;7.03;;
22282;SDS011;11310;51.528;21.204;2023-12-29T06:33:50;14.23;;;6.55;;
22282;SDS011;11310;51.528;21.204;2023-12-29T06:36:19;17.33;;;6.90;;
22282;SDS011;11310;51.528;21.204;2023-12-29T06:38:48;17.92;;;6.85;;
22282;SDS011;11310;51.528;21.204;2023-12-29T06:41:21;22.98;;;7.95;;
22282;SDS011;11310;51.528;21.204;2023-12-29T06:43:54;18.55;;;8.13;;
22282;SDS011;11310;51.528;21.204;2023-12-29T06:46:22;18.98;;;9.18;;
22282;SDS011;11310;51.528;21.204;2023-12-29T06:48:53;19.27;;;9.90;;
22282;SDS011;11310;51.528;21.204;2023-12-29T06:51:30;22.73;;;10.32;;
22282;SDS011;11310;51.528;21.204;2023-12-29T06:54:02;19.00;;;9.68;;
22282;SDS011;11310;51.528;21.204;2023-12-29T06:56:32;16.73;;;8.43;;
22282;SDS011;11310;51.528;21.204;2023-12-29T06:59:05;15.52;;;7.85;;
22282;SDS011;11310;51.528;21.204;2023-12-29T07:04:07;16.40;;;7.22;;
22282;SDS011;11310;51.528;21.204;2023-12-29T07:07:01;13.82;;;6.15;;
22282;SDS011;11310;51.528;21.204;2023-12-29T07:09:30;16.48;;;7.15;;
22282;SDS011;11310;51.528;21.204;2023-12-29T07:11:59;18.17;;;7.05;;
22282;SDS011;11310;51.528;21.204;2023-12-29T07:14:29;15.80;;;7.40;;
22282;SDS011;11310;51.528;21.204;2023-12-29T07:16:58;12.98;;;6.88;;
22282;SDS011;11310;51.528;21.204;2023-12-29T07:19:41;14.27;;;6.45;;
22282;SDS011;11310;51.528;21.204;2023-12-29T07:22:10;13.80;;;6.82;;
22282;SDS011;11310;51.528;21.204;2023-12-29T07:24:43;15.40;;;7.25;;
22282;SDS011;11310;51.528;21.204;2023-12-29T07:27:12;16.23;;;6.85;;
22282;SDS011;11310;51.528;21.204;2023-12-29T07:29:42;14.02;;;7.22;;
22282;SDS011;11310;51.528;21.204;2023-12-29T07:32:13;16.17;;;7.32;;
22282;SDS011;11310;51.528;21.204;2023-12-29T07:34:42;16.70;;;7.45;;
22282;SDS011;11310;51.528;21.204;2023-12-29T07:37:15;16.45;;;7.32;;
22282;SDS011;11310;51.528;21.204;2023-12-29T07:39:47;15.00;;;6.87;;
22282;SDS011;11310;51.528;21.204;2023-12-29T07:42:15;17.15;;;7.35;;
22282;SDS011;11310;51.528;21.204;2023-12-29T07:44:51;14.63;;;6.93;;
22282;SDS011;11310;51.528;21.204;2023-12-29T07:47:19;18.33;;;8.10;;
22282;SDS011;11310;51.528;21.204;2023-12-29T07:49:46;20.38;;;7.40;;
22282;SDS011;11310;51.528;21.204;2023-12-29T07:52:24;19.52;;;7.88;;
22282;SDS011;11310;51.528;21.204;2023-12-29T07:54:55;19.38;;;8.10;;
22282;SDS011;11310;51.528;21.204;2023-12-29T07:57:30;18.45;;;8.88;;
22282;SDS011;11310;51.528;21.204;2023-12-29T08:00:05;18.85;;;8.40;;
22282;SDS011;11310;51.528;21.204;2023-12-29T08:02:40;18.20;;;7.85;;
22282;SDS011;11310;51.528;21.204;2023-12-29T08:05:10;19.20;;;7.68;;
22282;SDS011;11310;51.528;21.204;2023-12-29T08:07:42;23.75;;;8.40;;
22282;SDS011;11310;51.528;21.204;2023-12-29T08:10:15;19.95;;;7.80;;
22282;SDS011;11310;51.528;21.204;2023-12-29T08:12:46;18.63;;;7.47;;
22282;SDS011;11310;51.528;21.204;2023-12-29T08:15:24;20.40;;;7.55;;
22282;SDS011;11310;51.528;21.204;2023-12-29T08:17:55;16.92;;;8.32;;
22282;SDS011;11310;51.528;21.204;2023-12-29T08:20:24;14.25;;;7.10;;
22282;SDS011;11310;51.528;21.204;2023-12-29T08:22:53;16.70;;;7.43;;
22282;SDS011;11310;51.528;21.204;2023-12-29T08:25:24;18.30;;;8.27;;
22282;SDS011;11310;51.528;21.204;2023-12-29T08:27:56;18.65;;;7.68;;
22282;SDS011;11310;51.528;21.204;2023-12-29T08:30:27;22.08;;;8.15;;
22282;SDS011;11310;51.528;21.204;2023-12-29T08:32:59;19.35;;;8.73;;
22282;SDS011;11310;51.528;21.204;2023-12-29T08:35:28;19.65;;;8.88;;
22282;SDS011;11310;51.528;21.204;2023-12-29T08:38:00;17.67;;;8.68;;
22282;SDS011;11310;51.528;21.204;2023-12-29T08:40:38;15.00;;;8.02;;
22282;SDS011;11310;51.528;21.204;2023-12-29T08:43:07;18.55;;;7.72;;
22282;SDS011;11310;51.528;21.204;2023-12-29T08:45:40;14.88;;;6.82;;
22282;SDS011;11310;51.528;21.204;2023-12-29T08:48:10;13.00;;;6.10;;
22282;SDS011;11310;51.528;21.204;2023-12-29T08:50:42;15.05;;;6.70;;
22282;SDS011;11310;51.528;21.204;2023-12-29T08:53:20;16.25;;;7.05;;
22282;SDS011;11310;51.528;21.204;2023-12-29T08:55:48;15.88;;;7.00;;
22282;SDS011;11310;51.528;21.204;2023-12-29T08:58:16;12.45;;;5.95;;
22282;SDS011;11310;51.528;21.204;2023-12-29T09:00:48;16.38;;;6.28;;
22282;SDS011;11310;51.528;21.204;2023-12-29T09:03:18;14.30;;;6.57;;
22282;SDS011;11310;51.528;21.204;2023-12-29T09:05:49;14.82;;;6.05;;
22282;SDS011;11310;51.528;21.204;2023-12-29T09:08:24;13.48;;;7.15;;
22282;SDS011;11310;51.528;21.204;2023-12-29T09:10:59;12.40;;;6.32;;
22282;SDS011;11310;51.528;21.204;2023-12-29T09:13:35;16.13;;;6.63;;
22282;SDS011;11310;51.528;21.204;2023-12-29T09:16:09;12.65;;;5.90;;
22282;SDS011;11310;51.528;21.204;2023-12-29T09:18:49;16.77;;;6.93;;
22282;SDS011;11310;51.528;21.204;2023-12-29T09:21:17;15.90;;;6.47;;
22282;SDS011;11310;51.528;21.204;2023-12-29T09:23:46;14.90;;;6.35;;
22282;SDS011;11310;51.528;21.204;2023-12-29T09:26:17;16.60;;;6.33;;
22282;SDS011;11310;51.528;21.204;2023-12-29T09:28:47;12.35;;;5.82;;
22282;SDS011;11310;51.528;21.204;2023-12-29T09:31:23;12.15;;;5.57;;
22282;SDS011;11310;51.528;21.204;2023-12-29T09:33:55;14.07;;;5.60;;
22282;SDS011;11310;51.528;21.204;2023-12-29T09:36:27;11.95;;;5.63;;
22282;SDS011;11310;51.528;21.204;2023-12-29T09:38:56;12.07;;;5.43;;
22282;SDS011;11310;51.528;21.204;2023-12-29T09:41:25;11.52;;;4.85;;
22282;SDS011;11310;51.528;21.204;2023-12-29T09:44:00;11.45;;;4.93;;
22282;SDS011;11310;51.528;21.204;2023-12-29T09:46:36;11.50;;;5.55;;
22282;SDS011;11310;51.528;21.204;2023-12-29T09:49:05;10.50;;;4.53;;
22282;SDS011;11310;51.528;21.204;2023-12-29T09:51:42;11.15;;;4.97;;
22282;SDS011;11310;51.528;21.204;2023-12-29T09:54:12;10.25;;;4.50;;
22282;SDS011;11310;51.528;21.204;2023-12-29T09:56:42;9.93;;;4.90;;
22282;SDS011;11310;51.528;21.204;2023-12-29T09:59:10;12.65;;;4.68;;
22282;SDS011;11310;51.528;21.204;2023-12-29T10:01:45;11.40;;;4.90;;
22282;SDS011;11310;51.528;21.204;2023-12-29T10:04:15;9.98;;;4.75;;
22282;SDS011;11310;51.528;21.204;2023-12-29T10:06:44;9.52;;;4.40;;
22282;SDS011;11310;51.528;21.204;2023-12-29T10:09:16;9.60;;;4.82;;
22282;SDS011;11310;51.528;21.204;2023-12-29T10:14:20;11.18;;;4.70;;
22282;SDS011;11310;51.528;21.204;2023-12-29T10:16:56;9.45;;;4.22;;
22282;SDS011;11310;51.528;21.204;2023-12-29T10:19:35;9.20;;;4.40;;
22282;SDS011;11310;51.528;21.204;2023-12-29T10:22:08;8.70;;;3.97;;
22282;SDS011;11310;51.528;21.204;2023-12-29T10:24:43;9.23;;;4.25;;
22282;SDS011;11310;51.528;21.204;2023-12-29T10:27:14;11.30;;;4.57;;
22282;SDS011;11310;51.528;21.204;2023-12-29T10:29:46;9.18;;;3.85;;
22282;SDS011;11310;51.528;21.204;2023-12-29T10:32:16;10.13;;;4.10;;
22282;SDS011;11310;51.528;21.204;2023-12-29T10:34:48;10.45;;;4.50;;
22282;SDS011;11310;51.528;21.204;2023-12-29T10:37:22;9.65;;;4.22;;
22282;SDS011;11310;51.528;21.204;2023-12-29T10:39:54;7.30;;;3.67;;
22282;SDS011;11310;51.528;21.204;2023-12-29T10:42:24;7.90;;;3.75;;
22282;SDS011;11310;51.528;21.204;2023-12-29T10:45:04;9.48;;;4.00;;
22282;SDS011;11310;51.528;21.204;2023-12-29T10:47:37;8.52;;;3.70;;
22282;SDS011;11310;51.528;21.204;2023-12-29T10:50:10;8.80;;;3.72;;
22282;SDS011;11310;51.528;21.204;2023-12-29T10:52:44;8.55;;;3.53;;
22282;SDS011;11310;51.528;21.204;2023-12-29T10:55:16;7.43;;;3.30;;
22282;SDS011;11310;51.528;21.204;2023-12-29T10:57:55;8.05;;;3.50;;
22282;SDS011;11310;51.528;21.204;2023-12-29T11:00:37;7.43;;;3.28;;
22282;SDS011;11310;51.528;21.204;2023-12-29T11:03:13;6.40;;;3.05;;
22282;SDS011;11310;51.528;21.204;2023-12-29T11:05:44;7.57;;;3.17;;
22282;SDS011;11310;51.528;21.204;2023-12-29T11:08:15;6.45;;;3.35;;
22282;SDS011;11310;51.528;21.204;2023-12-29T11:10:45;6.75;;;2.95;;
22282;SDS011;11310;51.528;21.204;2023-12-29T11:13:16;7.75;;;2.95;;
22282;SDS011;11310;51.528;21.204;2023-12-29T11:15:48;7.63;;;3.28;;
22282;SDS011;11310;51.528;21.204;2023-12-29T11:18:24;7.13;;;2.75;;
22282;SDS011;11310;51.528;21.204;2023-12-29T11:20:53;6.13;;;2.58;;
22282;SDS011;11310;51.528;21.204;2023-12-29T11:23:27;8.77;;;2.95;;
22282;SDS011;11310;51.528;21.204;2023-12-29T11:25:59;6.20;;;2.75;;
22282;SDS011;11310;51.528;21.204;2023-12-29T11:31:04;7.35;;;2.88;;
22282;SDS011;11310;51.528;21.204;2023-12-29T11:33:46;6.30;;;2.70;;
22282;SDS011;11310;51.528;21.204;2023-12-29T11:36:22;5.75;;;2.55;;
22282;SDS011;11310;51.528;21.204;2023-12-29T11:39:02;7.75;;;2.80;;
22282;SDS011;11310;51.528;21.204;2023-12-29T11:41:37;7.07;;;2.92;;
22282;SDS011;11310;51.528;21.204;2023-12-29T11:44:24;5.97;;;2.70;;
22282;SDS011;11310;51.528;21.204;2023-12-29T11:47:01;6.38;;;2.80;;
22282;SDS011;11310;51.528;21.204;2023-12-29T11:49:43;8.07;;;2.97;;
22282;SDS011;11310;51.528;21.204;2023-12-29T11:52:34;8.15;;;2.97;;
22282;SDS011;11310;51.528;21.204;2023-12-29T11:55:09;5.55;;;2.58;;
22282;SDS011;11310;51.528;21.204;2023-12-29T11:57:42;6.75;;;2.60;;
22282;SDS011;11310;51.528;21.204;2023-12-29T12:00:14;6.60;;;2.65;;
22282;SDS011;11310;51.528;21.204;2023-12-29T12:02:44;10.85;;;2.90;;
22282;SDS011;11310;51.528;21.204;2023-12-29T12:05:20;7.57;;;2.90;;
22282;SDS011;11310;51.528;21.204;2023-12-29T12:11:44;6.60;;;2.50;;
22282;SDS011;11310;51.528;21.204;2023-12-29T12:14:45;6.88;;;2.80;;
22282;SDS011;11310;51.528;21.204;2023-12-29T12:17:35;8.93;;;2.90;;
22282;SDS011;11310;51.528;21.204;2023-12-29T12:20:07;7.35;;;2.67;;
22282;SDS011;11310;51.528;21.204;2023-12-29T12:22:45;5.90;;;2.38;;
22282;SDS011;11310;51.528;21.204;2023-12-29T12:25:31;5.40;;;2.63;;
22282;SDS011;11310;51.528;21.204;2023-12-29T12:28:04;7.00;;;3.28;;
22282;SDS011;11310;51.528;21.204;2023-12-29T12:30:34;5.68;;;2.35;;
22282;SDS011;11310;51.528;21.204;2023-12-29T12:33:03;6.13;;;2.40;;
22282;SDS011;11310;51.528;21.204;2023-12-29T12:35:33;7.97;;;2.80;;
22282;SDS011;11310;51.528;21.204;2023-12-29T12:38:09;6.63;;;2.63;;
22282;SDS011;11310;51.528;21.204;2023-12-29T12:40:38;6.82;;;2.70;;
22282;SDS011;11310;51.528;21.204;2023-12-29T12:43:21;5.65;;;2.40;;
22282;SDS011;11310;51.528;21.204;2023-12-29T12:45:55;7.35;;;2.80;;
22282;SDS011;11310;51.528;21.204;2023-12-29T12:48:30;6.50;;;2.55;;
22282;SDS011;11310;51.528;21.204;2023-12-29T12:51:17;5.32;;;2.55;;
22282;SDS011;11310;51.528;21.204;2023-12-29T12:53:49;6.28;;;2.42;;
22282;SDS011;11310;51.528;21.204;2023-12-29T12:56:22;6.18;;;2.42;;
22282;SDS011;11310;51.528;21.204;2023-12-29T12:59:01;5.63;;;3.05;;
22282;SDS011;11310;51.528;21.204;2023-12-29T13:01:34;7.03;;;2.33;;
22282;SDS011;11310;51.528;21.204;2023-12-29T13:04:05;6.95;;;2.67;;
22282;SDS011;11310;51.528;21.204;2023-12-29T13:06:42;8.27;;;2.60;;
22282;SDS011;11310;51.528;21.204;2023-12-29T13:09:23;7.57;;;2.92;;
22282;SDS011;11310;51.528;21.204;2023-12-29T13:12:07;6.93;;;2.70;;
22282;SDS011;11310;51.528;21.204;2023-12-29T13:14:36;6.35;;;2.40;;
22282;SDS011;11310;51.528;21.204;2023-12-29T13:17:13;6.00;;;2.58;;
22282;SDS011;11310;51.528;21.204;2023-12-29T13:19:44;4.70;;;2.35;;
22282;SDS011;11310;51.528;21.204;2023-12-29T13:22:18;7.70;;;2.85;;
22282;SDS011;11310;51.528;21.204;2023-12-29T13:24:50;7.47;;;2.85;;
22282;SDS011;11310;51.528;21.204;2023-12-29T13:27:19;7.22;;;2.88;;
22282;SDS011;11310;51.528;21.204;2023-12-29T13:29:51;5.88;;;2.55;;
22282;SDS011;11310;51.528;21.204;2023-12-29T13:32:22;9.20;;;2.75;;
22282;SDS011;11310;51.528;21.204;2023-12-29T13:34:59;10.38;;;3.20;;
22282;SDS011;11310;51.528;21.204;2023-12-29T13:37:35;6.45;;;2.50;;
22282;SDS011;11310;51.528;21.204;2023-12-29T13:40:13;6.43;;;2.53;;
22282;SDS011;11310;51.528;21.204;2023-12-29T13:42:46;7.93;;;3.25;;
22282;SDS011;11310;51.528;21.204;2023-12-29T13:45:21;6.78;;;2.80;;
22282;SDS011;11310;51.528;21.204;2023-12-29T13:47:57;7.20;;;2.90;;
22282;SDS011;11310;51.528;21.204;2023-12-29T13:50:27;8.75;;;3.58;;
22282;SDS011;11310;51.528;21.204;2023-12-29T13:52:56;6.50;;;2.92;;
22282;SDS011;11310;51.528;21.204;2023-12-29T13:55:30;6.70;;;2.53;;
22282;SDS011;11310;51.528;21.204;2023-12-29T13:58:01;7.95;;;2.88;;
22282;SDS011;11310;51.528;21.204;2023-12-29T14:00:58;10.63;;;2.92;;
22282;SDS011;11310;51.528;21.204;2023-12-29T14:03:30;7.07;;;2.90;;
22282;SDS011;11310;51.528;21.204;2023-12-29T14:06:03;8.63;;;2.70;;
22282;SDS011;11310;51.528;21.204;2023-12-29T14:08:39;7.18;;;3.00;;
22282;SDS011;11310;51.528;21.204;2023-12-29T14:11:15;7.82;;;2.97;;
22282;SDS011;11310;51.528;21.204;2023-12-29T14:13:50;7.00;;;2.97;;
22282;SDS011;11310;51.528;21.204;2023-12-29T14:16:19;7.70;;;2.92;;
22282;SDS011;11310;51.528;21.204;2023-12-29T14:18:52;6.20;;;2.58;;
22282;SDS011;11310;51.528;21.204;2023-12-29T14:21:26;7.18;;;2.80;;
22282;SDS011;11310;51.528;21.204;2023-12-29T14:24:06;7.63;;;2.80;;
22282;SDS011;11310;51.528;21.204;2023-12-29T14:26:42;10.48;;;3.60;;
22282;SDS011;11310;51.528;21.204;2023-12-29T14:29:23;9.63;;;3.00;;
22282;SDS011;11310;51.528;21.204;2023-12-29T14:31:57;7.03;;;2.63;;
22282;SDS011;11310;51.528;21.204;2023-12-29T14:34:28;8.02;;;2.97;;
22282;SDS011;11310;51.528;21.204;2023-12-29T14:36:57;7.15;;;2.63;;
22282;SDS011;11310;51.528;21.204;2023-12-29T14:39:30;6.15;;;2.65;;
22282;SDS011;11310;51.528;21.204;2023-12-29T14:42:00;7.18;;;2.72;;
22282;SDS011;11310;51.528;21.204;2023-12-29T14:44:32;6.18;;;2.45;;
22282;SDS011;11310;51.528;21.204;2023-12-29T14:47:01;6.95;;;2.67;;
22282;SDS011;11310;51.528;21.204;2023-12-29T14:49:30;5.18;;;2.58;;
22282;SDS011;11310;51.528;21.204;2023-12-29T14:51:59;6.65;;;2.90;;
22282;SDS011;11310;51.528;21.204;2023-12-29T14:54:29;6.40;;;3.08;;
22282;SDS011;11310;51.528;21.204;2023-12-29T14:56:57;9.57;;;3.10;;
22282;SDS011;11310;51.528;21.204;2023-12-29T14:59:38;8.25;;;3.20;;
22282;SDS011;11310;51.528;21.204;2023-12-29T15:02:09;5.43;;;2.80;;
22282;SDS011;11310;51.528;21.204;2023-12-29T15:04:37;7.22;;;2.95;;
22282;SDS011;11310;51.528;21.204;2023-12-29T15:07:06;9.15;;;3.17;;
22282;SDS011;11310;51.528;21.204;2023-12-29T15:09:35;9.77;;;3.00;;
22282;SDS011;11310;51.528;21.204;2023-12-29T15:12:03;7.43;;;3.13;;
22282;SDS011;11310;51.528;21.204;2023-12-29T15:14:32;8.93;;;3.13;;